Time;durP1;ratioP1;P1;durP2;ratioP2;P2;SDS_P1;SDS_P2;PMS_P1;PMS_P2;Temp;Humidity;BMP_temperature;BMP_pressure;BME280_temperature;BME280_humidity;BME280_pressure;Samples;Min_cycle;Max_cycle;Signal;HPM_P1;HPM_P2
2021/12/29 00:00:28;;;;;;;34.93;19.77;;;3.40;99.90;;;;;;5053298;28;20666;-74
2021/12/29 00:02:56;;;;;;;35.93;20.60;;;3.40;99.90;;;;;;5070185;28;20179;-74
2021/12/29 00:05:22;;;;;;;33.83;20.57;;;3.40;99.90;;;;;;5071446;28;20625;-74
2021/12/29 00:07:48;;;;;;;40.17;21.63;;;3.40;99.90;;;;;;5054740;28;20257;-75
2021/12/29 00:10:15;;;;;;;37.10;21.50;;;3.50;99.90;;;;;;5054545;28;20263;-74
2021/12/29 00:12:45;;;;;;;38.10;20.63;;;3.50;99.90;;;;;;5070732;28;20785;-74
2021/12/29 00:15:13;;;;;;;37.47;20.93;;;3.50;99.90;;;;;;5052896;28;20272;-74
2021/12/29 00:17:42;;;;;;;32.33;19.77;;;3.50;99.90;;;;;;5052644;28;20169;-74
2021/12/29 00:20:08;;;;;;;35.77;20.93;;;3.50;99.90;;;;;;5052903;28;20171;-74
2021/12/29 00:22:34;;;;;;;37.43;20.17;;;3.50;99.90;;;;;;5052878;28;20174;-75
2021/12/29 00:25:00;;;;;;;34.30;19.93;;;3.50;99.90;;;;;;5052634;28;20204;-74
2021/12/29 00:27:25;;;;;;;36.30;21.70;;;3.50;99.90;;;;;;5052510;28;20202;-74
2021/12/29 00:29:51;;;;;;;36.83;20.83;;;3.50;99.90;;;;;;5052793;28;20171;-75
2021/12/29 00:32:16;;;;;;;36.43;20.20;;;3.50;99.90;;;;;;5068995;28;20586;-74
2021/12/29 00:34:42;;;;;;;37.77;21.73;;;3.50;99.90;;;;;;5070827;28;20167;-74
2021/12/29 00:37:07;;;;;;;38.57;19.37;;;3.50;99.90;;;;;;5069040;28;20198;-74
2021/12/29 00:39:33;;;;;;;37.67;21.40;;;3.50;99.90;;;;;;5070519;28;20171;-76
2021/12/29 00:41:59;;;;;;;40.83;21.50;;;3.50;99.90;;;;;;5070680;28;20162;-74
2021/12/29 00:44:24;;;;;;;32.87;20.27;;;3.50;99.90;;;;;;5070760;28;20175;-74
2021/12/29 00:46:53;;;;;;;35.23;20.40;;;3.50;99.90;;;;;;5052629;28;20315;-74
2021/12/29 00:49:20;;;;;;;35.07;20.53;;;3.50;99.90;;;;;;5070419;28;20660;-74
2021/12/29 00:51:46;;;;;;;36.20;19.77;;;3.50;99.90;;;;;;5052539;28;20173;-74
2021/12/29 00:54:11;;;;;;;34.23;19.53;;;3.50;99.90;;;;;;5070780;28;20646;-74
2021/12/29 00:56:38;;;;;;;37.90;20.70;;;3.60;99.90;;;;;;5052393;28;20282;-74
2021/12/29 00:59:04;;;;;;;31.43;18.80;;;3.50;99.90;;;;;;5052268;28;20171;-74
2021/12/29 01:01:30;;;;;;;35.70;19.00;;;3.50;99.90;;;;;;5052472;28;20176;-74
2021/12/29 01:03:56;;;;;;;37.67;20.23;;;3.60;99.90;;;;;;5073752;28;20192;-74
2021/12/29 01:06:22;;;;;;;35.50;19.53;;;3.60;99.90;;;;;;5055939;28;20192;-75
2021/12/29 01:08:48;;;;;;;38.07;20.73;;;3.60;99.90;;;;;;5073857;28;20176;-74
2021/12/29 01:11:14;;;;;;;33.93;19.00;;;3.60;99.90;;;;;;5055923;28;20177;-74
2021/12/29 01:13:46;;;;;;;33.87;20.20;;;3.60;99.90;;;;;;5055812;28;20295;-75
2021/12/29 01:16:36;;;;;;;35.50;19.27;;;3.50;99.90;;;;;;5072094;28;20316;-75
2021/12/29 01:19:12;;;;;;;35.47;19.80;;;3.50;99.90;;;;;;5073609;28;20167;-74
2021/12/29 01:21:40;;;;;;;32.57;18.60;;;3.50;99.90;;;;;;5055860;28;20172;-74
2021/12/29 01:24:07;;;;;;;34.10;19.63;;;3.50;99.90;;;;;;5055885;28;20172;-74
2021/12/29 01:26:33;;;;;;;34.57;19.23;;;3.60;99.90;;;;;;5073412;28;20679;-74
2021/12/29 01:28:59;;;;;;;31.93;20.23;;;3.60;99.90;;;;;;5055697;28;20175;-75
2021/12/29 01:31:24;;;;;;;34.10;18.43;;;3.60;99.90;;;;;;5073644;28;20507;-75
2021/12/29 01:33:50;;;;;;;37.23;20.33;;;3.60;99.90;;;;;;5055800;28;20241;-74
2021/12/29 01:36:15;;;;;;;34.43;19.33;;;3.60;99.90;;;;;;5071988;28;20196;-74
2021/12/29 01:38:41;;;;;;;31.87;18.43;;;3.60;99.90;;;;;;5055404;28;20206;-76
2021/12/29 01:41:06;;;;;;;35.33;18.57;;;3.60;99.90;;;;;;5072099;28;20167;-74
2021/12/29 01:43:32;;;;;;;32.27;19.37;;;3.60;99.90;;;;;;5055395;28;20167;-74
2021/12/29 01:45:57;;;;;;;30.13;18.10;;;3.60;99.90;;;;;;5073344;28;20275;-76
2021/12/29 01:48:23;;;;;;;38.03;20.13;;;3.60;99.90;;;;;;5054823;28;20307;-74
2021/12/29 01:50:51;;;;;;;36.57;19.63;;;3.60;99.90;;;;;;5055519;28;20172;-74
2021/12/29 01:53:25;;;;;;;32.87;19.37;;;3.60;99.90;;;;;;5055130;28;20289;-75
2021/12/29 01:55:51;;;;;;;32.40;17.80;;;3.70;99.90;;;;;;5055023;28;20310;-75
2021/12/29 01:58:18;;;;;;;34.27;18.77;;;3.60;99.90;;;;;;5053353;28;20167;-75
2021/12/29 02:00:44;;;;;;;30.30;16.53;;;3.70;99.90;;;;;;5052612;28;20233;-74
2021/12/29 02:03:10;;;;;;;28.13;17.60;;;3.70;99.90;;;;;;5052305;28;20554;-75
2021/12/29 02:05:37;;;;;;;29.13;17.97;;;3.70;99.90;;;;;;5072140;28;20194;-74
2021/12/29 02:08:04;;;;;;;30.40;18.87;;;3.80;99.90;;;;;;5072768;28;20180;-74
2021/12/29 02:10:35;;;;;;;31.77;18.40;;;3.80;99.90;;;;;;5054910;28;20187;-74
2021/12/29 02:13:00;;;;;;;26.87;17.40;;;3.80;99.90;;;;;;5054761;28;20202;-74
2021/12/29 02:15:26;;;;;;;34.10;17.57;;;3.80;99.90;;;;;;5072865;28;20522;-74
2021/12/29 02:17:51;;;;;;;27.40;17.20;;;3.80;99.90;;;;;;5054509;28;20177;-74
2021/12/29 02:20:20;;;;;;;34.07;19.10;;;3.90;99.90;;;;;;5072839;28;20170;-74
2021/12/29 02:22:49;;;;;;;30.70;18.33;;;3.90;99.90;;;;;;5054645;28;20184;-74
2021/12/29 02:27:54;;;;;;;31.83;17.20;;;3.90;99.90;;;;;;5072300;28;20672;-74
2021/12/29 02:30:23;;;;;;;30.53;17.30;;;3.90;99.90;;;;;;5054640;28;20181;-77
2021/12/29 02:32:54;;;;;;;28.27;16.30;;;4.00;99.90;;;;;;5054118;28;20200;-74
2021/12/29 02:35:20;;;;;;;27.13;17.20;;;4.00;99.90;;;;;;5054684;28;20169;-75
2021/12/29 02:37:45;;;;;;;29.03;17.00;;;4.00;99.90;;;;;;5054276;28;20172;-78
2021/12/29 02:40:12;;;;;;;29.60;16.73;;;4.00;99.90;;;;;;5070688;28;20176;-75
2021/12/29 02:42:41;;;;;;;29.50;17.43;;;4.00;99.90;;;;;;5054248;28;20175;-75
2021/12/29 02:45:14;;;;;;;27.03;16.53;;;4.00;99.90;;;;;;5071012;28;20168;-74
2021/12/29 02:47:40;;;;;;;28.10;16.33;;;4.00;99.90;;;;;;5053921;28;20176;-75
2021/12/29 02:50:06;;;;;;;29.40;18.30;;;4.10;99.90;;;;;;5053523;28;20184;-74
2021/12/29 02:52:31;;;;;;;32.17;17.77;;;4.00;99.90;;;;;;5054099;28;20201;-74
2021/12/29 02:54:57;;;;;;;27.53;16.00;;;4.10;99.90;;;;;;5054161;28;20666;-74
2021/12/29 02:57:22;;;;;;;28.87;16.70;;;4.10;99.90;;;;;;5053766;28;20238;-74
2021/12/29 02:59:48;;;;;;;26.13;16.87;;;4.10;99.90;;;;;;5053749;28;20176;-75
2021/12/29 03:02:14;;;;;;;27.10;16.47;;;4.10;99.90;;;;;;5053897;28;20171;-74
2021/12/29 03:04:39;;;;;;;26.23;15.33;;;4.10;99.90;;;;;;5053911;28;20168;-75
2021/12/29 03:07:05;;;;;;;26.57;15.70;;;4.10;99.90;;;;;;5053862;28;20591;-74
2021/12/29 03:09:30;;;;;;;29.07;16.33;;;4.10;99.90;;;;;;5053484;28;20179;-74
2021/12/29 03:11:56;;;;;;;24.77;15.70;;;4.20;99.90;;;;;;5053753;28;20638;-74
2021/12/29 03:14:23;;;;;;;25.70;15.73;;;4.20;99.90;;;;;;5070029;28;20609;-74
2021/12/29 03:16:48;;;;;;;24.13;15.43;;;4.20;99.90;;;;;;5053780;28;20226;-74
2021/12/29 03:19:14;;;;;;;28.00;15.73;;;4.20;99.90;;;;;;5053670;28;20204;-75
2021/12/29 03:21:40;;;;;;;26.57;15.10;;;4.20;99.90;;;;;;5053762;28;20259;-75
2021/12/29 03:24:07;;;;;;;26.60;15.37;;;4.20;99.90;;;;;;5071971;28;20578;-74
2021/12/29 03:26:34;;;;;;;23.87;15.40;;;4.30;99.90;;;;;;5053041;28;20213;-75
2021/12/29 03:29:00;;;;;;;27.03;14.93;;;4.30;99.90;;;;;;5053210;28;20664;-75
2021/12/29 03:31:27;;;;;;;25.57;14.00;;;4.30;99.90;;;;;;5053650;28;20253;-74
2021/12/29 03:33:53;;;;;;;26.23;15.10;;;4.30;99.90;;;;;;5071241;28;20205;-74
2021/12/29 03:36:19;;;;;;;25.17;14.07;;;4.30;99.90;;;;;;5053605;28;20201;-75
2021/12/29 03:38:46;;;;;;;23.23;14.10;;;4.30;99.90;;;;;;5052947;28;20203;-74
2021/12/29 03:41:14;;;;;;;24.43;13.80;;;4.30;99.90;;;;;;5071356;28;20164;-74
2021/12/29 03:43:41;;;;;;;25.70;14.57;;;4.20;99.90;;;;;;5053093;28;20188;-77
2021/12/29 03:46:07;;;;;;;23.57;13.67;;;4.20;99.90;;;;;;5053405;28;20202;-74
2021/12/29 03:48:34;;;;;;;26.40;13.73;;;4.10;99.90;;;;;;5053281;28;20264;-74
2021/12/29 03:51:01;;;;;;;32.40;14.83;;;4.10;99.90;;;;;;5053386;28;20203;-75
2021/12/29 03:53:27;;;;;;;24.43;13.20;;;4.10;99.90;;;;;;5053279;28;20188;-74
2021/12/29 03:55:53;;;;;;;24.83;13.40;;;4.00;99.90;;;;;;5053556;28;20184;-74
2021/12/29 03:58:20;;;;;;;24.13;14.00;;;4.00;99.90;;;;;;5052993;28;20602;-74
2021/12/29 04:00:47;;;;;;;26.63;14.17;;;4.00;99.90;;;;;;5053320;28;20178;-74
2021/12/29 04:03:13;;;;;;;28.27;14.00;;;4.00;99.90;;;;;;5052938;28;20650;-75
2021/12/29 04:05:40;;;;;;;25.70;14.40;;;4.00;99.90;;;;;;5053125;28;20193;-74
2021/12/29 04:08:05;;;;;;;22.73;13.53;;;4.00;99.90;;;;;;5052865;28;20265;-74
2021/12/29 04:10:31;;;;;;;23.83;13.47;;;4.00;99.90;;;;;;5071120;28;20580;-75
2021/12/29 04:12:58;;;;;;;27.13;15.20;;;4.10;99.90;;;;;;5052883;28;20585;-76
2021/12/29 04:15:25;;;;;;;27.87;14.57;;;4.10;99.90;;;;;;5053018;28;20180;-74
2021/12/29 04:17:57;;;;;;;25.00;13.10;;;4.10;99.90;;;;;;5070975;28;20604;-74
2021/12/29 04:23:09;;;;;;;28.93;13.60;;;4.30;99.90;;;;;;5071197;28;20267;-74
2021/12/29 04:25:37;;;;;;;23.77;13.17;;;4.40;99.90;;;;;;5052644;28;20230;-74
2021/12/29 04:28:08;;;;;;;27.97;11.83;;;4.40;99.90;;;;;;5084046;22;20661;-69
2021/12/29 04:30:35;;;;;;;27.57;13.17;;;4.40;99.90;;;;;;5090837;28;20506;-69
2021/12/29 04:33:01;;;;;;;20.97;12.43;;;4.40;99.90;;;;;;5089108;28;20198;-69
2021/12/29 04:35:26;;;;;;;20.03;12.27;;;4.40;99.90;;;;;;5072566;28;20175;-69
2021/12/29 04:37:53;;;;;;;21.90;12.50;;;4.40;99.90;;;;;;5073609;28;20257;-69
2021/12/29 04:40:19;;;;;;;23.47;12.30;;;4.40;99.90;;;;;;5076276;28;20642;-71
2021/12/29 04:42:45;;;;;;;22.93;13.13;;;4.50;99.90;;;;;;5076125;28;20176;-69
2021/12/29 04:45:11;;;;;;;23.10;12.20;;;4.50;99.90;;;;;;5076466;28;20177;-69
2021/12/29 04:47:42;;;;;;;23.90;12.60;;;4.50;99.90;;;;;;5094112;28;20232;-69
2021/12/29 04:50:24;;;;;;;22.73;12.30;;;4.50;99.90;;;;;;5076210;28;20222;-70
2021/12/29 04:52:51;;;;;;;21.03;12.40;;;4.50;99.90;;;;;;5075775;28;20707;-70
2021/12/29 04:55:17;;;;;;;21.30;12.13;;;4.50;99.90;;;;;;5076064;28;20169;-69
2021/12/29 04:57:42;;;;;;;21.07;11.60;;;4.60;99.90;;;;;;5093793;28;20665;-69
2021/12/29 05:00:08;;;;;;;21.47;11.90;;;4.60;99.90;;;;;;5094449;28;20171;-69
2021/12/29 05:02:34;;;;;;;22.90;12.33;;;4.60;99.90;;;;;;5075843;28;20672;-71
2021/12/29 05:05:08;;;;;;;22.87;11.53;;;4.50;99.90;;;;;;5076328;28;20447;-69
2021/12/29 05:10:17;;;;;;;21.97;10.30;;;4.60;99.90;;;;;;5095206;28;20220;-69
2021/12/29 05:12:43;;;;;;;20.53;11.40;;;4.60;99.90;;;;;;5075940;28;20662;-70
2021/12/29 05:15:08;;;;;;;22.03;11.23;;;4.60;99.90;;;;;;5094682;28;20681;-69
2021/12/29 05:17:34;;;;;;;22.10;11.07;;;4.60;99.90;;;;;;5093933;28;20271;-69
2021/12/29 05:19:59;;;;;;;24.33;12.30;;;4.60;99.90;;;;;;5093540;28;20257;-69
2021/12/29 05:22:25;;;;;;;19.73;11.07;;;4.60;99.90;;;;;;5093556;28;20268;-69
2021/12/29 05:24:50;;;;;;;18.03;10.97;;;4.60;99.90;;;;;;5075467;28;20209;-69
2021/12/29 05:27:17;;;;;;;20.63;10.83;;;4.60;99.90;;;;;;5093196;28;20213;-69
2021/12/29 05:29:42;;;;;;;24.93;11.77;;;4.60;99.90;;;;;;5093508;28;20208;-69
2021/12/29 05:32:08;;;;;;;23.20;11.53;;;4.60;99.90;;;;;;5075197;28;20212;-69
2021/12/29 05:34:33;;;;;;;24.73;12.33;;;4.60;99.90;;;;;;5093641;28;20177;-69
2021/12/29 05:36:59;;;;;;;23.57;11.37;;;4.60;99.90;;;;;;5075304;28;20198;-69
2021/12/29 05:39:25;;;;;;;26.07;11.83;;;4.70;99.90;;;;;;5074653;28;20635;-69
2021/12/29 05:41:51;;;;;;;21.27;11.13;;;4.70;99.90;;;;;;5075290;28;20201;-69
2021/12/29 05:44:17;;;;;;;20.57;11.07;;;4.70;99.90;;;;;;5075318;28;20545;-69
2021/12/29 05:46:43;;;;;;;20.27;11.70;;;4.70;99.90;;;;;;5075331;28;20193;-69
2021/12/29 05:49:09;;;;;;;21.20;11.43;;;4.70;99.90;;;;;;5074369;28;20227;-69
2021/12/29 05:51:35;;;;;;;24.73;12.13;;;4.70;99.90;;;;;;5093618;28;20176;-69
2021/12/29 05:54:00;;;;;;;21.43;10.27;;;4.70;99.90;;;;;;5092948;28;20212;-70
2021/12/29 05:56:26;;;;;;;20.20;10.93;;;4.70;99.90;;;;;;5074674;28;20209;-70
2021/12/29 05:58:52;;;;;;;20.70;10.03;;;4.80;99.90;;;;;;5074612;28;20173;-69
2021/12/29 06:01:17;;;;;;;21.37;11.17;;;4.70;99.90;;;;;;5075138;28;20176;-69
2021/12/29 06:03:43;;;;;;;17.50;9.37;;;4.70;99.90;;;;;;5092846;28;20266;-70
2021/12/29 06:06:09;;;;;;;20.00;11.53;;;4.80;99.90;;;;;;5092951;28;20196;-70
2021/12/29 06:08:35;;;;;;;19.33;10.60;;;4.80;99.90;;;;;;5074807;28;20171;-70
2021/12/29 06:11:00;;;;;;;18.73;10.70;;;4.80;99.90;;;;;;5075721;28;20183;-70
2021/12/29 06:13:27;;;;;;;22.10;10.97;;;4.70;99.90;;;;;;5075371;28;20209;-70
2021/12/29 06:15:52;;;;;;;15.70;9.80;;;4.80;99.90;;;;;;5075685;28;20173;-70
2021/12/29 06:18:18;;;;;;;18.90;9.87;;;4.80;99.90;;;;;;5075145;28;20613;-70
2021/12/29 06:20:43;;;;;;;21.87;11.20;;;4.80;99.90;;;;;;5075427;28;20522;-70
2021/12/29 06:23:12;;;;;;;21.27;11.50;;;4.80;99.90;;;;;;5075658;28;20507;-71
2021/12/29 06:25:38;;;;;;;18.30;11.53;;;4.80;99.90;;;;;;5075897;28;20213;-69
2021/12/29 06:28:05;;;;;;;24.27;11.70;;;4.80;99.90;;;;;;5075347;28;20596;-70
2021/12/29 06:30:31;;;;;;;27.47;11.50;;;4.80;99.90;;;;;;5075601;28;20188;-69
2021/12/29 06:32:56;;;;;;;17.93;10.20;;;4.80;99.90;;;;;;5093278;28;20247;-70
2021/12/29 06:35:22;;;;;;;21.90;11.20;;;4.80;99.90;;;;;;5075556;28;20249;-70
2021/12/29 06:37:48;;;;;;;19.30;11.03;;;4.80;99.90;;;;;;5074767;28;20625;-71
2021/12/29 06:40:14;;;;;;;24.17;11.80;;;4.80;99.90;;;;;;5075092;28;20339;-72
2021/12/29 06:42:41;;;;;;;21.90;10.23;;;4.90;99.90;;;;;;5092212;28;20174;-70
2021/12/29 06:45:07;;;;;;;21.70;10.70;;;4.90;99.90;;;;;;5074042;28;20382;-70
2021/12/29 06:47:33;;;;;;;20.63;10.87;;;4.80;99.90;;;;;;5073971;28;20541;-70
2021/12/29 06:49:59;;;;;;;19.13;10.70;;;4.80;99.90;;;;;;5073820;28;20360;-70
2021/12/29 06:52:25;;;;;;;18.50;10.23;;;4.80;99.90;;;;;;5073767;28;20197;-70
2021/12/29 06:54:50;;;;;;;21.23;10.90;;;4.90;99.90;;;;;;5073796;28;20161;-69
2021/12/29 06:57:16;;;;;;;22.73;10.70;;;4.90;99.90;;;;;;5073598;28;20357;-69
2021/12/29 06:59:44;;;;;;;22.43;11.47;;;4.90;99.90;;;;;;5072953;28;20547;-69
2021/12/29 07:02:11;;;;;;;21.30;10.40;;;4.90;99.90;;;;;;5073790;28;20225;-70
2021/12/29 07:04:37;;;;;;;24.80;10.57;;;4.90;99.90;;;;;;5074259;28;20294;-69
2021/12/29 07:07:03;;;;;;;24.53;11.70;;;4.90;99.90;;;;;;5073777;28;20262;-68
2021/12/29 07:09:28;;;;;;;23.80;11.23;;;4.90;99.90;;;;;;5091693;28;20179;-69
2021/12/29 07:11:54;;;;;;;21.77;10.80;;;4.90;99.90;;;;;;5091872;28;20176;-70
2021/12/29 07:14:21;;;;;;;21.13;11.67;;;4.90;99.90;;;;;;5073316;28;20231;-69
2021/12/29 07:16:47;;;;;;;23.83;11.50;;;4.90;99.90;;;;;;5073296;28;20189;-69
2021/12/29 07:19:13;;;;;;;24.87;12.17;;;4.90;99.90;;;;;;5073043;28;20333;-69
2021/12/29 07:21:39;;;;;;;22.83;11.47;;;4.90;99.90;;;;;;5073470;28;20178;-70
2021/12/29 07:24:06;;;;;;;22.77;11.37;;;4.90;99.90;;;;;;5073029;28;20221;-70
2021/12/29 07:26:32;;;;;;;18.23;10.80;;;4.90;99.90;;;;;;5091427;28;20204;-69
2021/12/29 07:28:58;;;;;;;22.17;10.77;;;4.90;99.90;;;;;;5072804;28;20688;-70
2021/12/29 07:31:25;;;;;;;24.30;11.50;;;4.90;99.90;;;;;;5073242;28;20173;-70
2021/12/29 07:33:51;;;;;;;24.00;11.90;;;4.90;99.90;;;;;;5073037;28;20199;-70
2021/12/29 07:36:17;;;;;;;24.77;12.13;;;4.90;99.90;;;;;;5073438;28;20172;-70
2021/12/29 07:38:44;;;;;;;24.53;12.13;;;4.90;99.90;;;;;;5072820;28;20725;-70
2021/12/29 07:41:10;;;;;;;22.03;10.93;;;4.90;99.90;;;;;;5073199;28;20177;-70
2021/12/29 07:43:37;;;;;;;23.57;12.77;;;4.90;99.90;;;;;;5091279;28;20581;-70
2021/12/29 07:46:04;;;;;;;24.17;11.00;;;4.80;99.90;;;;;;5073004;28;20177;-70
2021/12/29 07:48:31;;;;;;;26.03;12.20;;;4.90;99.90;;;;;;5072790;28;20173;-70
2021/12/29 07:50:58;;;;;;;20.80;11.23;;;5.00;99.90;;;;;;5073185;28;20200;-70
2021/12/29 07:53:23;;;;;;;22.10;11.27;;;4.90;99.90;;;;;;5072824;28;20254;-70
2021/12/29 07:55:49;;;;;;;21.43;11.23;;;5.00;99.90;;;;;;5073286;28;20181;-70
2021/12/29 07:58:15;;;;;;;21.33;11.53;;;5.00;99.90;;;;;;5090827;28;20228;-70
2021/12/29 08:00:42;;;;;;;28.77;13.07;;;4.90;99.90;;;;;;5073010;28;20164;-70
2021/12/29 08:03:11;;;;;;;20.27;11.33;;;5.00;99.90;;;;;;5072757;28;20185;-70
2021/12/29 08:05:37;;;;;;;23.30;11.70;;;5.00;99.90;;;;;;5091012;28;20200;-70
2021/12/29 08:08:05;;;;;;;28.53;12.77;;;5.00;99.90;;;;;;5090550;28;20228;-70
2021/12/29 08:10:32;;;;;;;25.90;12.13;;;5.00;99.90;;;;;;5091156;28;20253;-70
2021/12/29 08:12:57;;;;;;;22.97;11.30;;;5.00;99.90;;;;;;5094637;28;20192;-70
2021/12/29 08:15:23;;;;;;;27.57;12.20;;;5.00;99.90;;;;;;5076839;28;20160;-70
2021/12/29 08:17:48;;;;;;;20.47;11.17;;;5.10;99.90;;;;;;5076181;28;20273;-70
2021/12/29 08:20:14;;;;;;;23.83;12.30;;;5.10;99.90;;;;;;5076848;28;20657;-70
2021/12/29 08:22:39;;;;;;;22.73;11.83;;;5.10;99.90;;;;;;5076792;28;20271;-70
2021/12/29 08:25:06;;;;;;;22.00;12.13;;;5.10;99.90;;;;;;5076938;28;20527;-70
2021/12/29 08:27:33;;;;;;;23.10;12.00;;;5.20;99.90;;;;;;5076393;28;20312;-70
2021/12/29 08:29:59;;;;;;;26.77;12.23;;;5.20;99.90;;;;;;5095020;28;20169;-71
2021/12/29 08:32:26;;;;;;;23.93;11.27;;;5.20;99.90;;;;;;5076564;28;20223;-70
2021/12/29 08:34:52;;;;;;;22.10;10.93;;;5.20;99.90;;;;;;5076513;28;20174;-70
2021/12/29 08:37:18;;;;;;;24.40;12.13;;;5.20;99.90;;;;;;5076333;28;20190;-71
2021/12/29 08:39:43;;;;;;;23.23;11.53;;;5.20;99.90;;;;;;5094877;28;20191;-70
2021/12/29 08:42:10;;;;;;;20.30;10.97;;;5.30;99.90;;;;;;5094952;28;20173;-71
2021/12/29 08:44:36;;;;;;;18.03;10.33;;;5.30;99.90;;;;;;5094911;28;20680;-70
2021/12/29 08:47:01;;;;;;;23.47;10.43;;;5.40;99.90;;;;;;5076442;28;20179;-71
2021/12/29 08:49:27;;;;;;;21.20;11.23;;;5.40;99.90;;;;;;5094469;28;20194;-70
2021/12/29 08:51:52;;;;;;;24.63;11.40;;;5.40;99.90;;;;;;5076783;28;20171;-70
2021/12/29 08:54:18;;;;;;;23.30;11.53;;;5.50;99.90;;;;;;5094243;28;20258;-70
2021/12/29 08:56:43;;;;;;;21.90;12.03;;;5.40;99.90;;;;;;5076802;28;20190;-71
2021/12/29 08:59:10;;;;;;;21.53;11.33;;;5.40;99.90;;;;;;5094992;28;20202;-70
2021/12/29 09:01:36;;;;;;;24.17;11.37;;;5.50;99.90;;;;;;5077084;28;20194;-70
2021/12/29 09:04:02;;;;;;;27.83;11.93;;;5.50;99.90;;;;;;5076026;28;20171;-70
2021/12/29 09:06:28;;;;;;;24.23;11.60;;;5.50;99.90;;;;;;5095068;28;20193;-71
2021/12/29 09:08:54;;;;;;;23.27;12.23;;;5.50;99.90;;;;;;5093698;28;20166;-72
2021/12/29 09:11:20;;;;;;;27.10;12.47;;;5.60;99.90;;;;;;5075951;28;20239;-71
2021/12/29 09:13:45;;;;;;;31.83;14.57;;;5.60;99.90;;;;;;5075468;28;20202;-69
2021/12/29 09:16:11;;;;;;;21.23;11.83;;;5.70;99.90;;;;;;5075956;28;20300;-70
2021/12/29 09:18:37;;;;;;;27.00;12.50;;;5.60;99.90;;;;;;5075507;28;20520;-70
2021/12/29 09:21:07;;;;;;;22.10;12.00;;;5.60;99.90;;;;;;5094331;28;20718;-70
2021/12/29 09:23:34;;;;;;;22.33;12.37;;;5.70;99.90;;;;;;5074985;28;20178;-72
2021/12/29 09:26:00;;;;;;;26.53;12.43;;;5.80;99.90;;;;;;5075627;28;20211;-70
2021/12/29 09:28:25;;;;;;;24.87;12.57;;;5.80;99.90;;;;;;5075287;28;20186;-70
2021/12/29 09:30:52;;;;;;;22.77;12.13;;;5.80;99.90;;;;;;5094074;28;20576;-71
2021/12/29 09:33:19;;;;;;;23.60;12.50;;;5.90;99.90;;;;;;5075566;28;20247;-71
2021/12/29 09:35:49;;;;;;;25.53;12.40;;;5.90;99.90;;;;;;5075704;28;20195;-70
2021/12/29 09:38:17;;;;;;;25.87;12.03;;;5.90;99.90;;;;;;5075019;28;20190;-70
2021/12/29 09:40:44;;;;;;;27.40;12.97;;;5.90;99.90;;;;;;5093792;28;20619;-70
2021/12/29 09:43:09;;;;;;;24.77;12.20;;;6.00;99.90;;;;;;5075198;28;20178;-69
2021/12/29 09:45:37;;;;;;;20.47;11.90;;;6.00;99.90;;;;;;5075438;28;20171;-70
2021/12/29 09:48:03;;;;;;;23.33;11.63;;;6.00;99.90;;;;;;5093076;28;20662;-70
2021/12/29 09:50:28;;;;;;;23.00;10.57;;;6.00;99.90;;;;;;5093480;28;20186;-70
2021/12/29 09:52:56;;;;;;;21.17;11.40;;;6.00;99.90;;;;;;5075211;28;20194;-70
2021/12/29 09:55:23;;;;;;;23.80;12.80;;;6.00;99.90;;;;;;5075330;28;20201;-71
2021/12/29 09:57:51;;;;;;;21.97;11.27;;;6.00;99.90;;;;;;5074604;28;20190;-69
2021/12/29 10:00:43;;;;;;;20.53;11.97;;;6.00;99.90;;;;;;5074937;28;20174;-69
2021/12/29 10:03:11;;;;;;;22.17;12.00;;;6.00;99.90;;;;;;5075077;28;20179;-72
2021/12/29 10:05:39;;;;;;;26.93;13.17;;;6.00;99.90;;;;;;5093410;28;20166;-69
2021/12/29 10:08:22;;;;;;;24.87;12.57;;;6.00;99.90;;;;;;5092731;28;20697;-71
2021/12/29 10:10:53;;;;;;;22.07;11.63;;;6.10;99.90;;;;;;5093356;28;20775;-71
2021/12/29 10:13:19;;;;;;;21.57;12.50;;;6.10;99.90;;;;;;5075001;28;20198;-71
2021/12/29 10:15:47;;;;;;;29.97;13.17;;;6.10;99.90;;;;;;5074969;28;20657;-71
2021/12/29 10:18:14;;;;;;;23.23;12.73;;;6.10;99.90;;;;;;5074328;28;20214;-69
2021/12/29 10:21:13;;;;;;;23.37;12.30;;;6.10;99.90;;;;;;5074779;28;20257;-69
2021/12/29 10:23:46;;;;;;;29.53;12.13;;;6.10;99.90;;;;;;5087639;28;20183;-69
2021/12/29 10:26:21;;;;;;;28.00;13.87;;;6.20;99.90;;;;;;5092875;28;20529;-69
2021/12/29 10:28:50;;;;;;;29.33;14.27;;;6.20;99.90;;;;;;5078202;28;20177;-69
2021/12/29 10:31:24;;;;;;;24.33;13.23;;;6.20;99.90;;;;;;5079133;28;20174;-72
2021/12/29 10:34:02;;;;;;;25.07;13.07;;;6.20;99.90;;;;;;5080534;28;20278;-69
2021/12/29 10:36:32;;;;;;;26.70;13.43;;;6.20;99.90;;;;;;5079658;28;20190;-69
2021/12/29 10:39:13;;;;;;;23.90;13.77;;;6.20;99.90;;;;;;5098393;28;20158;-69
2021/12/29 10:41:55;;;;;;;28.23;14.47;;;6.20;99.90;;;;;;5074497;28;20583;-71
2021/12/29 10:44:27;;;;;;;31.30;14.63;;;6.20;99.90;;;;;;5092542;28;20337;-69
2021/12/29 10:46:56;;;;;;;30.77;15.50;;;6.20;99.90;;;;;;5092837;28;20226;-68
2021/12/29 10:49:24;;;;;;;33.83;15.03;;;6.20;99.90;;;;;;5074651;28;20265;-69
2021/12/29 10:51:49;;;;;;;33.23;14.93;;;6.20;99.90;;;;;;5074327;28;20174;-69
2021/12/29 10:54:19;;;;;;;27.27;15.40;;;6.20;99.90;;;;;;5073935;28;20293;-69
2021/12/29 10:57:05;;;;;;;28.87;15.27;;;6.20;99.90;;;;;;5074058;28;20273;-69
2021/12/29 10:59:35;;;;;;;27.77;15.07;;;6.20;99.90;;;;;;5073654;28;20182;-70
2021/12/29 11:02:02;;;;;;;32.20;16.23;;;6.20;99.90;;;;;;5092570;28;20513;-69
2021/12/29 11:04:28;;;;;;;26.10;14.40;;;6.20;99.90;;;;;;5092008;28;20207;-69
2021/12/29 11:07:01;;;;;;;35.47;17.33;;;6.20;99.90;;;;;;5073803;28;20186;-69
2021/12/29 11:09:36;;;;;;;35.47;15.57;;;6.30;99.90;;;;;;5073495;28;20260;-69
2021/12/29 11:12:10;;;;;;;28.30;15.03;;;6.30;99.90;;;;;;5092209;28;20227;-69
2021/12/29 11:14:42;;;;;;;41.77;19.60;;;6.30;99.90;;;;;;5073485;28;20170;-69
2021/12/29 11:17:08;;;;;;;38.10;17.07;;;6.30;99.90;;;;;;5091863;28;20182;-68
2021/12/29 11:19:35;;;;;;;32.90;15.30;;;6.30;99.90;;;;;;5091361;28;20185;-69
2021/12/29 11:22:07;;;;;;;35.97;16.57;;;6.30;99.90;;;;;;5073634;28;20185;-69
2021/12/29 11:24:33;;;;;;;29.27;15.10;;;6.30;99.90;;;;;;5073324;28;20233;-69
2021/12/29 11:27:07;;;;;;;31.80;14.30;;;6.40;99.90;;;;;;5073502;28;20210;-69
2021/12/29 11:29:32;;;;;;;30.40;15.63;;;6.30;99.90;;;;;;5091331;28;20380;-69
2021/12/29 11:32:01;;;;;;;32.50;16.07;;;6.30;99.90;;;;;;5073426;28;20649;-69
2021/12/29 11:34:28;;;;;;;34.30;14.83;;;6.30;99.90;;;;;;5091548;28;20514;-69
2021/12/29 11:37:02;;;;;;;32.13;15.20;;;6.40;99.90;;;;;;5091405;28;20674;-70
2021/12/29 11:39:28;;;;;;;28.07;15.10;;;6.40;99.90;;;;;;5073042;28;20631;-69
2021/12/29 11:41:54;;;;;;;32.60;15.07;;;6.40;99.90;;;;;;5073230;28;20202;-69
2021/12/29 11:44:20;;;;;;;30.73;15.67;;;6.40;99.90;;;;;;5091252;28;20170;-69
2021/12/29 11:46:47;;;;;;;35.20;15.77;;;6.30;99.90;;;;;;5072830;28;20334;-69
2021/12/29 11:49:12;;;;;;;35.17;17.50;;;6.30;99.90;;;;;;5072567;28;20174;-69
2021/12/29 11:51:51;;;;;;;33.00;16.60;;;6.40;99.90;;;;;;5073426;28;20178;-69
2021/12/29 11:54:24;;;;;;;33.70;15.93;;;6.30;99.90;;;;;;5073115;28;20221;-69
2021/12/29 11:56:49;;;;;;;32.83;16.43;;;6.30;99.90;;;;;;5073249;28;20201;-69
2021/12/29 11:59:15;;;;;;;35.50;16.57;;;6.30;99.90;;;;;;5073011;28;20174;-69
2021/12/29 12:01:41;;;;;;;33.20;16.40;;;6.30;99.90;;;;;;5091480;28;20163;-69
2021/12/29 12:04:10;;;;;;;40.63;17.57;;;6.30;99.90;;;;;;5072970;28;20178;-68
2021/12/29 12:06:41;;;;;;;34.57;17.70;;;6.30;99.90;;;;;;5073121;28;20229;-70
2021/12/29 12:09:24;;;;;;;33.80;19.33;;;6.30;99.90;;;;;;5090911;28;20534;-69
2021/12/29 12:11:52;;;;;;;34.10;17.10;;;6.30;99.90;;;;;;5073163;28;20181;-69
2021/12/29 12:14:18;;;;;;;39.97;19.00;;;6.40;99.90;;;;;;5072825;28;20580;-71
2021/12/29 12:17:05;;;;;;;35.33;17.30;;;6.40;99.90;;;;;;5072881;28;20185;-69
2021/12/29 12:19:32;;;;;;;36.93;17.70;;;6.40;99.90;;;;;;5090741;28;20177;-69
2021/12/29 12:22:08;;;;;;;36.63;18.13;;;6.40;99.90;;;;;;5072695;28;20235;-69
2021/12/29 12:24:36;;;;;;;39.97;17.53;;;6.40;99.90;;;;;;5072955;28;20589;-69
2021/12/29 12:27:15;;;;;;;37.00;17.40;;;6.50;99.90;;;;;;5090936;28;20761;-69
2021/12/29 12:29:43;;;;;;;39.77;18.10;;;6.50;99.90;;;;;;5072336;28;20178;-69
2021/12/29 12:32:18;;;;;;;31.43;17.53;;;6.40;99.90;;;;;;5072827;28;20174;-69
2021/12/29 12:34:57;;;;;;;35.17;16.97;;;6.40;99.90;;;;;;5072919;28;20264;-69
2021/12/29 12:37:42;;;;;;;37.10;18.00;;;6.40;99.90;;;;;;5072569;28;20205;-69
2021/12/29 12:40:25;;;;;;;33.63;18.17;;;6.40;99.90;;;;;;5072952;28;20531;-69
2021/12/29 12:43:06;;;;;;;34.03;17.10;;;6.40;99.90;;;;;;5072772;28;20189;-69
2021/12/29 12:45:35;;;;;;;36.40;18.03;;;6.40;99.90;;;;;;5072758;28;20641;-69
2021/12/29 12:48:13;;;;;;;39.50;18.40;;;6.40;99.90;;;;;;5072161;28;20194;-69